createdAt,value
2022-09-18T00:01:44.862Z,100.00
2022-09-18T00:04:15.327Z,100.00
2022-09-18T00:06:46.718Z,100.00
2022-09-18T00:09:16.884Z,100.00
2022-09-18T00:11:47.982Z,100.00
2022-09-18T00:14:19.641Z,100.00
2022-09-18T00:16:50.676Z,100.00
2022-09-18T00:19:20.161Z,100.00
2022-09-18T00:21:52.201Z,100.00
2022-09-18T00:24:22.386Z,100.00
2022-09-18T00:26:52.273Z,100.00
2022-09-18T00:29:21.307Z,100.00
2022-09-18T00:31:51.770Z,100.00
2022-09-18T00:34:24.078Z,100.00
2022-09-18T00:36:53.235Z,100.00
2022-09-18T00:39:22.325Z,100.00
2022-09-18T00:41:51.611Z,100.00
2022-09-18T00:44:40.002Z,100.00
2022-09-18T00:47:27.374Z,100.00
2022-09-18T00:50:03.561Z,100.00
2022-09-18T00:52:41.324Z,100.00
2022-09-18T00:55:12.842Z,100.00
2022-09-18T00:57:47.659Z,100.00
2022-09-18T01:00:17.041Z,100.00
2022-09-18T01:02:49.219Z,100.00
2022-09-18T01:05:22.907Z,100.00
2022-09-18T01:08:04.535Z,100.00
2022-09-18T01:10:48.154Z,100.00
2022-09-18T01:13:27.238Z,100.00
2022-09-18T01:16:03.288Z,100.00
2022-09-18T01:18:41.523Z,100.00
2022-09-18T01:21:16.353Z,100.00
2022-09-18T01:24:42.554Z,100.00
2022-09-18T01:27:19.768Z,100.00
2022-09-18T01:29:57.194Z,100.00
2022-09-18T01:32:32.250Z,100.00
2022-09-18T01:35:18.656Z,100.00
2022-09-18T01:38:05.273Z,100.00
2022-09-18T01:40:37.832Z,100.00
2022-09-18T01:43:10.305Z,100.00
2022-09-18T01:45:45.741Z,100.00
2022-09-18T01:48:24.766Z,100.00
2022-09-18T01:50:57.462Z,100.00
2022-09-18T01:53:30.207Z,100.00
2022-09-18T01:56:04.120Z,100.00
2022-09-18T01:58:36.409Z,100.00
2022-09-18T02:01:13.440Z,100.00
2022-09-18T02:03:46.285Z,100.00
2022-09-18T02:06:22.923Z,100.00
2022-09-18T02:08:55.873Z,100.00
2022-09-18T02:11:26.852Z,100.00
2022-09-18T02:13:59.735Z,100.00
2022-09-18T02:16:45.814Z,100.00
2022-09-18T02:19:20.020Z,100.00
2022-09-18T02:21:51.031Z,100.00
2022-09-18T02:24:25.093Z,100.00
2022-09-18T02:26:57.774Z,100.00
2022-09-18T02:29:28.516Z,100.00
2022-09-18T02:32:01.523Z,100.00
2022-09-18T02:34:31.825Z,100.00
2022-09-18T02:37:29.562Z,100.00
2022-09-18T02:40:11.258Z,100.00
2022-09-18T02:42:51.372Z,100.00
2022-09-18T02:45:29.094Z,100.00
2022-09-18T02:48:15.665Z,100.00
2022-09-18T02:50:54.473Z,100.00
2022-09-18T02:53:31.564Z,100.00
2022-09-18T02:56:04.517Z,100.00
2022-09-18T02:58:43.646Z,100.00
2022-09-18T03:01:15.856Z,100.00
2022-09-18T03:03:49.418Z,100.00
2022-09-18T03:06:20.816Z,100.00
2022-09-18T03:08:50.209Z,100.00
2022-09-18T03:11:19.144Z,100.00
2022-09-18T03:13:48.226Z,100.00
2022-09-18T03:16:19.962Z,100.00
2022-09-18T03:18:51.728Z,100.00
2022-09-18T03:21:22.766Z,100.00
2022-09-18T03:23:52.717Z,100.00
2022-09-18T03:26:27.568Z,100.00
2022-09-18T03:28:56.566Z,100.00
2022-09-18T03:31:26.966Z,100.00
2022-09-18T03:33:57.478Z,100.00
2022-09-18T03:36:26.878Z,100.00
2022-09-18T03:38:56.688Z,100.00
2022-09-18T03:41:25.752Z,100.00
2022-09-18T03:43:54.995Z,100.00
2022-09-18T03:46:24.298Z,100.00
2022-09-18T03:48:58.716Z,100.00
2022-09-18T03:51:30.373Z,100.00
2022-09-18T03:53:59.996Z,100.00
2022-09-18T03:56:49.153Z,100.00
2022-09-18T03:59:42.455Z,100.00
2022-09-18T04:02:37.930Z,100.00
2022-09-18T04:05:27.018Z,100.00
2022-09-18T04:08:14.724Z,100.00
2022-09-18T04:11:15.838Z,100.00
2022-09-18T04:13:44.965Z,100.00
2022-09-18T04:16:15.776Z,100.00
2022-09-18T04:18:44.889Z,100.00
2022-09-18T04:21:15.249Z,100.00
2022-09-18T04:23:44.202Z,100.00
2022-09-18T04:26:15.418Z,100.00
2022-09-18T04:28:51.638Z,100.00
2022-09-18T04:31:21.200Z,100.00
2022-09-18T04:33:50.636Z,100.00
2022-09-18T04:36:24.794Z,100.00
2022-09-18T04:38:54.270Z,100.00
2022-09-18T04:41:23.791Z,100.00
2022-09-18T04:43:53.052Z,100.00
2022-09-18T04:46:22.106Z,100.00
2022-09-18T04:48:53.347Z,100.00
2022-09-18T04:51:27.129Z,100.00
2022-09-18T04:53:56.184Z,100.00
2022-09-18T04:56:26.000Z,100.00
2022-09-18T04:58:55.444Z,100.00
2022-09-18T05:01:24.633Z,100.00
2022-09-18T05:03:53.630Z,100.00
2022-09-18T05:06:31.320Z,100.00
2022-09-18T05:09:02.693Z,100.00
2022-09-18T05:11:31.793Z,100.00
2022-09-18T05:14:03.911Z,100.00
2022-09-18T05:16:35.562Z,100.00
2022-09-18T05:19:36.856Z,100.00
2022-09-18T05:22:13.246Z,100.00
2022-09-18T05:24:47.308Z,100.00
2022-09-18T05:27:16.358Z,100.00
2022-09-18T05:34:21.388Z,100.00
2022-09-18T05:37:18.064Z,100.00
2022-09-18T05:39:50.095Z,100.00
2022-09-18T05:42:19.094Z,100.00
2022-09-18T05:44:48.040Z,100.00
2022-09-18T05:47:22.935Z,100.00
2022-09-18T05:49:51.905Z,100.00
2022-09-18T05:52:26.955Z,100.00
2022-09-18T05:54:56.177Z,100.00
2022-09-18T05:57:25.472Z,100.00
2022-09-18T05:59:54.558Z,100.00
2022-09-18T06:02:23.532Z,100.00
2022-09-18T06:05:01.044Z,100.00
2022-09-18T06:07:32.440Z,100.00
2022-09-18T06:10:02.892Z,100.00
2022-09-18T06:12:33.898Z,100.00
2022-09-18T06:15:04.221Z,100.00
2022-09-18T06:17:33.315Z,100.00
2022-09-18T06:20:06.229Z,100.00
2022-09-18T06:22:37.363Z,100.00
2022-09-18T06:25:07.437Z,100.00
2022-09-18T06:27:37.113Z,100.00
2022-09-18T06:30:07.009Z,100.00
2022-09-18T06:32:37.660Z,100.00
2022-09-18T06:35:07.505Z,100.00
2022-09-18T06:37:38.496Z,100.00
2022-09-18T06:40:22.377Z,100.00
2022-09-18T06:43:11.473Z,100.00
2022-09-18T06:46:04.592Z,100.00
2022-09-18T06:48:40.654Z,100.00
2022-09-18T06:51:10.814Z,100.00
2022-09-18T06:53:59.747Z,100.00
2022-09-18T06:56:28.875Z,100.00
2022-09-18T06:58:57.876Z,100.00
2022-09-18T07:01:26.991Z,100.00
2022-09-18T07:04:15.117Z,100.00
2022-09-18T07:06:48.853Z,100.00
2022-09-18T07:09:19.443Z,100.00
2022-09-18T07:12:11.661Z,100.00
2022-09-18T07:14:52.448Z,100.00
2022-09-18T07:17:26.167Z,100.00
2022-09-18T07:19:57.625Z,100.00
2022-09-18T07:22:37.411Z,100.00
2022-09-18T07:25:09.502Z,100.00
2022-09-18T07:27:38.948Z,100.00
2022-09-18T07:30:09.006Z,100.00
2022-09-18T07:32:38.085Z,100.00
2022-09-18T07:35:13.376Z,100.00
2022-09-18T07:37:42.505Z,100.00
2022-09-18T07:40:26.844Z,100.00
2022-09-18T07:43:14.790Z,100.00
2022-09-18T07:45:53.417Z,100.00
2022-09-18T07:48:23.565Z,100.00
2022-09-18T07:50:58.985Z,100.00
2022-09-18T07:53:28.166Z,100.00
2022-09-18T07:56:01.517Z,100.00
2022-09-18T07:58:31.162Z,100.00
2022-09-18T08:01:07.882Z,100.00
2022-09-18T08:03:43.988Z,100.00
2022-09-18T08:06:13.364Z,100.00
2022-09-18T08:09:00.241Z,100.00
2022-09-18T08:11:57.469Z,100.00
2022-09-18T08:14:37.859Z,100.00
2022-09-18T08:17:31.066Z,100.00
2022-09-18T08:20:12.093Z,100.00
2022-09-18T08:22:52.062Z,99.80
2022-09-18T08:25:25.309Z,98.98
2022-09-18T08:27:56.032Z,96.14
2022-09-18T08:30:36.342Z,91.60
2022-09-18T08:33:12.863Z,92.35
2022-09-18T08:35:43.314Z,90.70
2022-09-18T08:38:21.961Z,92.42
2022-09-18T08:41:24.758Z,93.14
2022-09-18T08:44:06.599Z,94.44
2022-09-18T08:46:43.067Z,93.72
2022-09-18T08:49:24.523Z,91.47
2022-09-18T08:52:01.337Z,87.81
2022-09-18T08:54:45.381Z,87.21
2022-09-18T08:57:26.753Z,87.68
2022-09-18T09:00:08.354Z,88.44
2022-09-18T09:02:43.053Z,89.75
2022-09-18T09:05:16.269Z,86.82
2022-09-18T09:08:09.588Z,84.96
2022-09-18T09:10:51.896Z,85.74
2022-09-18T09:14:02.885Z,85.90
2022-09-18T09:16:43.472Z,85.50
2022-09-18T09:19:31.435Z,79.87
2022-09-18T09:22:07.578Z,79.89
2022-09-18T09:24:48.273Z,79.16
2022-09-18T09:27:52.675Z,79.22
2022-09-18T09:30:43.822Z,78.33
2022-09-18T09:33:39.176Z,79.83
2022-09-18T09:36:31.491Z,77.73
2022-09-18T09:39:08.977Z,75.24
2022-09-18T09:41:43.291Z,75.92
2022-09-18T09:44:38.419Z,75.67
2022-09-18T09:47:22.890Z,72.17
2022-09-18T09:50:07.482Z,72.69
2022-09-18T09:52:40.679Z,72.80
2022-09-18T09:55:26.640Z,71.28
2022-09-18T09:58:12.215Z,72.01
2022-09-18T10:00:49.801Z,72.24
2022-09-18T10:03:35.309Z,72.10
2022-09-18T10:06:18.440Z,73.81
2022-09-18T10:08:56.563Z,73.92
2022-09-18T10:11:26.345Z,72.01
2022-09-18T10:14:05.128Z,68.59
2022-09-18T10:16:39.480Z,69.11
2022-09-18T10:19:16.826Z,68.25
2022-09-18T10:21:47.973Z,70.56
2022-09-18T10:24:25.963Z,71.08
2022-09-18T10:27:01.948Z,70.00
2022-09-18T10:29:35.947Z,67.86
2022-09-18T10:32:07.975Z,64.58
2022-09-18T10:34:45.290Z,63.79
2022-09-18T10:37:38.045Z,65.99
2022-09-18T10:40:32.259Z,66.90
2022-09-18T10:43:03.702Z,68.98
2022-09-18T10:45:42.692Z,68.60
2022-09-18T10:48:28.755Z,65.58
2022-09-18T10:51:03.828Z,62.20
2022-09-18T10:53:43.543Z,55.68
2022-09-18T10:56:28.738Z,53.95
2022-09-18T10:59:13.959Z,52.65
2022-09-18T11:01:44.986Z,53.55
2022-09-18T11:04:18.699Z,53.50
2022-09-18T11:06:52.720Z,53.00
2022-09-18T11:09:41.261Z,52.45
2022-09-18T11:12:19.394Z,51.69
2022-09-18T11:14:59.834Z,51.51
2022-09-18T11:17:34.257Z,54.72
2022-09-18T11:20:25.170Z,55.21
2022-09-18T11:23:17.620Z,57.51
2022-09-18T11:25:48.968Z,58.76
2022-09-18T11:28:31.212Z,57.69
2022-09-18T11:31:07.334Z,56.30
2022-09-18T11:33:44.229Z,51.91
2022-09-18T11:36:17.364Z,51.81
2022-09-18T11:38:48.129Z,49.60
2022-09-18T11:41:25.353Z,48.76
2022-09-18T11:44:14.978Z,48.52
2022-09-18T11:47:04.477Z,48.50
2022-09-18T11:49:39.572Z,48.58
2022-09-18T11:52:18.639Z,47.62
2022-09-18T11:55:02.256Z,46.52
2022-09-18T11:57:38.411Z,46.67
2022-09-18T12:00:14.254Z,47.29
2022-09-18T12:02:51.349Z,48.49
2022-09-18T12:05:28.322Z,49.90
2022-09-18T12:08:06.962Z,49.23
2022-09-18T12:10:50.849Z,49.35
2022-09-18T12:13:39.712Z,51.57
2022-09-18T12:16:17.195Z,53.72
2022-09-18T12:18:52.436Z,56.17
2022-09-18T12:21:28.184Z,57.78
2022-09-18T12:23:57.928Z,59.33
2022-09-18T12:26:39.882Z,58.31
2022-09-18T12:29:23.689Z,59.02
2022-09-18T12:32:01.552Z,58.68
2022-09-18T12:34:39.889Z,59.09
2022-09-18T12:37:30.739Z,55.49
2022-09-18T12:40:25.491Z,51.09
2022-09-18T12:43:16.310Z,49.34
2022-09-18T12:46:09.486Z,50.37
2022-09-18T12:49:02.505Z,51.49
2022-09-18T12:51:40.764Z,49.60
2022-09-18T12:54:40.155Z,50.44
2022-09-18T12:57:26.177Z,49.52
2022-09-18T13:00:01.229Z,48.96
2022-09-18T13:02:50.598Z,47.75
2022-09-18T13:05:27.139Z,47.06
2022-09-18T13:08:02.987Z,48.21
2022-09-18T13:10:37.619Z,49.35
2022-09-18T13:13:15.243Z,51.49
2022-09-18T13:15:49.639Z,51.61
2022-09-18T13:18:33.222Z,51.12
2022-09-18T13:21:14.098Z,51.31
2022-09-18T13:24:33.973Z,51.31
2022-09-18T13:27:24.745Z,49.92
2022-09-18T13:35:35.251Z,49.77
2022-09-18T13:38:27.372Z,49.66
2022-09-18T13:41:17.987Z,49.60
2022-09-18T13:43:52.828Z,52.85
2022-09-18T13:47:26.195Z,56.11
2022-09-18T13:49:57.874Z,58.35
2022-09-18T13:52:42.636Z,57.46
2022-09-18T13:55:38.136Z,58.37
2022-09-18T13:58:52.957Z,58.16
2022-09-18T14:01:56.614Z,67.17
2022-09-18T14:04:58.362Z,71.03
2022-09-18T14:08:07.847Z,69.15
2022-09-18T14:11:14.187Z,70.61
2022-09-18T14:13:51.509Z,68.16
2022-09-18T14:16:41.497Z,66.44
2022-09-18T14:19:32.254Z,67.07
2022-09-18T14:22:02.509Z,68.15
2022-09-18T14:25:16.259Z,69.56
2022-09-18T14:27:53.711Z,70.37
2022-09-18T14:30:25.320Z,69.48
2022-09-18T14:33:06.434Z,68.33
2022-09-18T14:35:46.187Z,65.32
2022-09-18T14:38:37.064Z,65.86
2022-09-18T14:41:19.416Z,64.70
2022-09-18T14:43:55.891Z,61.56
2022-09-18T14:46:26.590Z,58.51
2022-09-18T14:48:56.481Z,54.17
2022-09-18T14:51:35.074Z,53.26
2022-09-18T14:54:21.777Z,54.40
2022-09-18T14:56:52.800Z,55.98
2022-09-18T14:59:24.266Z,57.89
2022-09-18T15:01:53.993Z,59.17
2022-09-18T15:04:27.890Z,59.97
2022-09-18T15:06:57.127Z,61.82
2022-09-18T15:09:32.264Z,63.78
2022-09-18T15:12:03.646Z,65.64
2022-09-18T15:14:44.073Z,68.08
2022-09-18T15:17:20.425Z,69.86
2022-09-18T15:20:18.744Z,68.77
2022-09-18T15:22:49.101Z,67.97
2022-09-18T15:26:13.397Z,74.98
2022-09-18T15:29:19.007Z,100.00
2022-09-18T15:31:54.923Z,100.00
2022-09-18T15:36:10.567Z,100.00
2022-09-18T15:37:29.479Z,100.00
2022-09-18T15:40:08.602Z,100.00
2022-09-18T15:43:10.075Z,100.00
2022-09-18T15:46:07.095Z,100.00
2022-09-18T15:49:45.732Z,100.00
2022-09-18T15:53:28.952Z,100.00
2022-09-18T15:56:23.225Z,100.00
2022-09-18T15:58:59.514Z,100.00
2022-09-18T16:01:36.674Z,100.00
2022-09-18T16:04:34.281Z,100.00
2022-09-18T16:07:13.385Z,100.00
2022-09-18T16:09:52.449Z,100.00
2022-09-18T16:12:51.895Z,100.00
2022-09-18T16:15:27.843Z,100.00
2022-09-18T16:18:24.947Z,100.00
2022-09-18T16:21:17.573Z,100.00
2022-09-18T16:23:50.798Z,100.00
2022-09-18T16:26:31.478Z,100.00
2022-09-18T16:29:04.298Z,100.00
2022-09-18T16:31:42.532Z,100.00
2022-09-18T16:34:24.402Z,100.00
2022-09-18T16:37:09.895Z,100.00
2022-09-18T16:39:40.058Z,100.00
2022-09-18T16:42:22.230Z,100.00
2022-09-18T16:44:55.711Z,100.00
2022-09-18T16:47:40.401Z,100.00
2022-09-18T16:50:11.432Z,100.00
2022-09-18T16:52:42.548Z,100.00
2022-09-18T16:55:11.582Z,100.00
2022-09-18T16:57:44.332Z,100.00
2022-09-18T17:00:14.393Z,100.00
2022-09-18T17:02:50.819Z,100.00
2022-09-18T17:05:30.558Z,100.00
2022-09-18T17:07:59.589Z,100.00
2022-09-18T17:10:28.680Z,100.00
2022-09-18T17:12:57.742Z,100.00
2022-09-18T17:15:26.931Z,100.00
2022-09-18T17:17:55.976Z,100.00
2022-09-18T17:20:25.014Z,100.00
2022-09-18T17:22:59.966Z,100.00
2022-09-18T17:25:29.925Z,100.00
2022-09-18T17:27:58.968Z,100.00
2022-09-18T17:30:28.087Z,100.00
2022-09-18T17:32:57.098Z,100.00
2022-09-18T17:35:26.720Z,100.00
2022-09-18T17:37:57.306Z,100.00
2022-09-18T17:40:26.333Z,100.00
2022-09-18T17:42:55.297Z,100.00
2022-09-18T17:45:24.613Z,100.00
2022-09-18T17:47:54.999Z,100.00
2022-09-18T17:50:25.064Z,100.00
2022-09-18T17:54:11.400Z,100.00
2022-09-18T17:56:56.154Z,100.00
2022-09-18T17:59:41.207Z,100.00
2022-09-18T18:02:13.429Z,100.00
2022-09-18T18:06:00.614Z,100.00
2022-09-18T18:12:45.856Z,100.00
2022-09-18T18:15:15.031Z,100.00
2022-09-18T18:17:44.198Z,100.00
2022-09-18T18:20:13.189Z,100.00
2022-09-18T18:22:42.176Z,100.00
2022-09-18T18:25:12.379Z,100.00
2022-09-18T18:27:42.795Z,100.00
2022-09-18T18:30:13.151Z,100.00
2022-09-18T18:32:43.204Z,100.00
2022-09-18T18:35:12.173Z,100.00
2022-09-18T18:37:41.237Z,100.00
2022-09-18T18:40:11.005Z,100.00
2022-09-18T18:42:41.344Z,100.00
2022-09-18T18:45:11.379Z,100.00
2022-09-18T18:47:41.487Z,100.00
2022-09-18T18:50:17.499Z,100.00
2022-09-18T18:52:49.990Z,100.00
2022-09-18T18:55:19.684Z,100.00
2022-09-18T18:57:49.909Z,100.00
2022-09-18T19:00:18.877Z,100.00
2022-09-18T19:02:50.484Z,100.00
2022-09-18T19:05:25.127Z,100.00
2022-09-18T19:07:54.048Z,100.00
2022-09-18T19:10:25.607Z,100.00
2022-09-18T19:12:57.442Z,100.00
2022-09-18T19:15:26.752Z,100.00
2022-09-18T19:18:00.414Z,100.00
2022-09-18T19:20:30.467Z,100.00
2022-09-18T19:23:00.073Z,100.00
2022-09-18T19:25:30.250Z,100.00
2022-09-18T19:28:00.845Z,100.00
2022-09-18T19:30:29.843Z,100.00
2022-09-18T19:32:58.719Z,100.00
2022-09-18T19:35:27.617Z,100.00
2022-09-18T19:37:56.472Z,100.00
2022-09-18T19:40:25.463Z,100.00
2022-09-18T19:43:00.189Z,100.00
2022-09-18T19:45:34.255Z,100.00
2022-09-18T19:48:05.007Z,100.00
2022-09-18T19:50:38.011Z,100.00
2022-09-18T19:53:07.065Z,100.00
2022-09-18T19:55:35.863Z,100.00
2022-09-18T19:58:04.792Z,100.00
2022-09-18T20:00:37.147Z,100.00
2022-09-18T20:03:06.192Z,100.00
2022-09-18T20:05:37.786Z,100.00
2022-09-18T20:08:07.706Z,100.00
2022-09-18T20:10:38.679Z,100.00
2022-09-18T20:13:09.754Z,100.00
2022-09-18T20:15:40.203Z,100.00
2022-09-18T20:18:09.454Z,100.00
2022-09-18T20:20:38.464Z,100.00
2022-09-18T20:23:07.700Z,100.00
2022-09-18T20:25:36.745Z,100.00
2022-09-18T20:28:05.584Z,100.00
2022-09-18T20:30:34.429Z,100.00
2022-09-18T20:33:05.384Z,100.00
2022-09-18T20:35:38.449Z,100.00
2022-09-18T20:38:07.783Z,100.00
2022-09-18T20:40:38.368Z,100.00
2022-09-18T20:43:07.946Z,100.00
2022-09-18T20:45:36.856Z,100.00
2022-09-18T20:48:07.272Z,100.00
2022-09-18T20:50:37.304Z,100.00
2022-09-18T20:53:08.262Z,100.00
2022-09-18T20:55:37.164Z,100.00
2022-09-18T20:58:06.252Z,100.00
2022-09-18T21:00:36.802Z,100.00
2022-09-18T21:03:07.121Z,100.00
2022-09-18T21:05:36.634Z,100.00
2022-09-18T21:08:05.636Z,100.00
2022-09-18T21:10:34.746Z,100.00
2022-09-18T21:13:05.880Z,100.00
2022-09-18T21:15:35.028Z,100.00
2022-09-18T21:18:03.867Z,100.00
2022-09-18T21:20:34.376Z,100.00
2022-09-18T21:23:20.459Z,100.00
2022-09-18T21:25:49.515Z,100.00
2022-09-18T21:28:18.412Z,100.00
2022-09-18T21:30:47.402Z,100.00
2022-09-18T21:33:16.364Z,100.00
2022-09-18T21:35:55.054Z,100.00
2022-09-18T21:38:23.980Z,100.00
2022-09-18T21:40:52.865Z,100.00
2022-09-18T21:43:21.732Z,100.00
2022-09-18T21:45:50.638Z,100.00
2022-09-18T21:48:19.530Z,100.00
2022-09-18T21:50:48.658Z,100.00
2022-09-18T21:53:19.351Z,100.00
2022-09-18T21:55:48.491Z,100.00
2022-09-18T21:58:21.014Z,100.00
2022-09-18T22:00:50.071Z,100.00
2022-09-18T22:03:19.179Z,100.00
2022-09-18T22:05:48.296Z,100.00
2022-09-18T22:08:18.619Z,100.00
2022-09-18T22:10:47.579Z,100.00
2022-09-18T22:13:16.449Z,100.00
2022-09-18T22:15:45.407Z,100.00
2022-09-18T22:18:14.226Z,100.00
2022-09-18T22:20:43.070Z,100.00
2022-09-18T22:23:11.935Z,100.00
2022-09-18T22:25:42.263Z,100.00
2022-09-18T22:28:11.214Z,100.00
2022-09-18T22:30:40.258Z,100.00
2022-09-18T22:33:09.167Z,100.00
2022-09-18T22:35:38.007Z,100.00
2022-09-18T22:38:06.917Z,100.00
2022-09-18T22:40:35.800Z,100.00
2022-09-18T22:43:06.104Z,100.00
2022-09-18T22:45:35.110Z,100.00
2022-09-18T22:48:04.213Z,100.00
2022-09-18T22:50:33.041Z,100.00
2022-09-18T22:53:01.908Z,100.00
2022-09-18T22:55:31.628Z,100.00
2022-09-18T22:58:01.346Z,100.00
2022-09-18T23:00:31.781Z,100.00
2022-09-18T23:03:01.190Z,100.00
2022-09-18T23:05:30.058Z,100.00
2022-09-18T23:07:58.922Z,100.00
2022-09-18T23:10:27.915Z,100.00
2022-09-18T23:12:56.751Z,100.00
2022-09-18T23:15:25.992Z,100.00
2022-09-18T23:17:56.206Z,100.00
2022-09-18T23:20:25.212Z,100.00
2022-09-18T23:22:54.076Z,100.00
2022-09-18T23:25:23.035Z,100.00
2022-09-18T23:27:54.511Z,100.00
2022-09-18T23:30:25.684Z,100.00
2022-09-18T23:32:55.960Z,100.00
2022-09-18T23:35:24.965Z,100.00
2022-09-18T23:37:53.859Z,100.00
2022-09-18T23:40:23.112Z,100.00
2022-09-18T23:42:52.160Z,100.00
2022-09-18T23:45:21.154Z,100.00
2022-09-18T23:47:51.932Z,100.00
2022-09-18T23:50:22.263Z,100.00
2022-09-18T23:52:51.203Z,100.00
2022-09-18T23:55:20.467Z,100.00
2022-09-18T23:57:49.375Z,100.00
